Tessa Kosan — MCRC4 — position and weather

sailwx.info

Track history (hours):
 
Tides and Currents Weather Stations Pressure Air Temp Water Temp Dewpoint Dewpoint Depression Visibility Wind Speed Wind Dir Waves Ship Positions

Tessa Kosan

Last reported at 2017-Oct-18 20:30 UTC. Time now 2017-Oct-18 20:32 UTC.
Position N 51°26' E 003°38'.

Length 112 m; draft 5.3 m.

Type: Ship (hazmat cat C). MMSI: 235006740.

Date/timePositionNaut miles runAvg speedWind from/ knotsBaromVisibWave heightAir tempDewpointWater temp
2017-Oct-18 20:30N 51°26' E 003°38'3 4.0
2017-Oct-18 19:44N 51°28' E 003°42'0 0.0
2017-Oct-18 19:20N 51°28' E 003°42'0 0.0
2017-Oct-18 18:56N 51°28' E 003°42'0 0.0
2017-Oct-18 18:26N 51°28' E 003°42'0 0.0
2017-Oct-18 17:53N 51°28' E 003°42'0 0.0
2017-Oct-18 17:08N 51°28' E 003°42'0 0.0
2017-Oct-18 16:56N 51°28' E 003°42'0 0.0
2017-Oct-18 16:26N 51°28' E 003°42'0 0.0
2017-Oct-18 15:56N 51°28' E 003°42'0 0.0
2017-Oct-18 15:21N 51°28' E 003°42'0 0.0
2017-Oct-18 15:00N 51°28' E 003°42'8 7.6
2017-Oct-18 14:00N 51°21' E 003°46'0 0.0
2017-Oct-18 13:30N 51°21' E 003°46'0 0.0
2017-Oct-18 13:00N 51°21' E 003°46'0 0.0
2017-Oct-18 12:30N 51°21' E 003°46'0 0.0
2017-Oct-18 12:00N 51°21' E 003°46'0 0.0
2017-Oct-18 11:30N 51°21' E 003°46'0 0.0
2017-Oct-18 11:00N 51°21' E 003°46'0 0.0
2017-Oct-18 10:30N 51°21' E 003°46'0 0.0
2017-Oct-18 10:00N 51°21' E 003°46'0 0.0
2017-Oct-18 09:30N 51°21' E 003°46'0 0.0
2017-Oct-18 09:00N 51°21' E 003°46'0 0.0
2017-Oct-18 08:30N 51°21' E 003°46'0 0.0
2017-Oct-18 08:00N 51°21' E 003°46'0 0.0
2017-Oct-18 07:30N 51°21' E 003°46'0 0.0
2017-Oct-18 07:00N 51°21' E 003°46'0 0.0
2017-Oct-18 06:30N 51°21' E 003°46'0 0.0
2017-Oct-18 06:00N 51°21' E 003°46'0 0.0
2017-Oct-18 05:30N 51°21' E 003°46'0 0.0
2017-Oct-18 05:00N 51°21' E 003°46'0 0.0
2017-Oct-18 04:30N 51°21' E 003°46'0 0.0
2017-Oct-18 04:00N 51°21' E 003°46'0 0.0
2017-Oct-18 03:30N 51°21' E 003°46'0 0.0
2017-Oct-18 03:00N 51°21' E 003°46'0 0.0
2017-Oct-18 02:30N 51°21' E 003°46'0 0.0
2017-Oct-18 02:00N 51°21' E 003°46'0 0.0
2017-Oct-18 01:30N 51°21' E 003°46'0 0.0
2017-Oct-18 01:00N 51°21' E 003°46'0 0.0
2017-Oct-18 00:30N 51°21' E 003°46'0 0.0
2017-Oct-18 00:00N 51°21' E 003°46'0 0.0
2017-Oct-17 23:30N 51°21' E 003°46'0 0.0
2017-Oct-17 23:00N 51°21' E 003°46'0 0.0
2017-Oct-17 22:30N 51°21' E 003°46'0 0.0
2017-Oct-17 22:00N 51°21' E 003°46'0 0.0
2017-Oct-17 21:30N 51°21' E 003°46'0 0.0
2017-Oct-17 21:00N 51°21' E 003°46'0 0.0
2017-Oct-17 20:30N 51°21' E 003°46'0 0.0
2017-Oct-17 20:00N 51°21' E 003°46'0 0.0
2017-Oct-17 19:30N 51°21' E 003°46'0 0.0
2017-Oct-17 19:00N 51°21' E 003°46'0 0.0
2017-Oct-17 18:30N 51°21' E 003°46'0 0.0
2017-Oct-17 18:00N 51°21' E 003°46'0 0.0
2017-Oct-17 17:30N 51°21' E 003°46'0 0.0
2017-Oct-17 17:00N 51°21' E 003°46'0 0.0
2017-Oct-17 16:30N 51°21' E 003°46'0 0.0
2017-Oct-17 16:00N 51°21' E 003°46'0 0.0
2017-Oct-17 15:30N 51°21' E 003°46'0 0.0
2017-Oct-17 15:00N 51°21' E 003°46'1 2.1
2017-Oct-17 14:30N 51°22' E 003°45'510.4
2017-Oct-17 14:00N 51°26' E 003°41'510.5
2017-Oct-17 13:30N 51°25' E 003°32'612.3
2017-Oct-17 13:00N 51°24' E 003°22'713.7
2017-Oct-17 12:30N 51°24' E 003°12'713.8
2017-Oct-17 12:00N 51°26' E 003°01'612.1
2017-Oct-17 11:30N 51°31' E 003°05'612.0
2017-Oct-17 11:01N 51°36' E 003°11'612.4
2017-Oct-17 10:30N 51°42' E 003°14'2 4.0
2017-Oct-17 10:00N 51°44' E 003°15'5 9.3
2017-Oct-17 09:30N 51°48' E 003°16'611.6
2017-Oct-17 09:00N 51°54' E 003°19'1713.0
2017-Oct-17 07:40N 52°11' E 003°22'213.5
2017-Oct-17 07:30N 52°13' E 003°23'11512.6
2017-Oct-16 22:19N 53°56' E 004°52'513.8
2017-Oct-16 21:59N 54°00' E 004°54'713.9
2017-Oct-16 21:30N 54°06' E 004°58'814.0
2017-Oct-16 20:54N 54°14' E 005°04'7113.8
2017-Oct-16 15:46N 55°17' E 006°01'11614.3
2017-Oct-16 07:38N 56°59' E 007°41'2413.8
2017-Oct-16 05:54N 57°18' E 008°08'1013.8
2017-Oct-16 05:12N 57°22' E 008°24'314.2
2017-Oct-16 04:58N 57°23' E 008°30'613.8
2017-Oct-16 04:30N 57°26' E 008°41'3813.6
2017-Oct-16 01:43N 57°41' E 009°46'413.4
2017-Oct-16 01:26N 57°42' E 009°52'713.6
2017-Oct-16 00:55N 57°45' E 010°04'713.4
2017-Oct-16 00:23N 57°48' E 010°16'513.0
2017-Oct-16 00:00N 57°50' E 010°25'713.2
2017-Oct-15 23:30N 57°50' E 010°38'612.7
2017-Oct-15 23:00N 57°48' E 010°49'714.2
2017-Oct-15 22:30N 57°43' E 010°58'714.5
2017-Oct-15 22:00N 57°38' E 011°07'714.9
2017-Oct-15 21:30N 57°33' E 011°18'714.8
2017-Oct-15 21:00N 57°27' E 011°27'714.7
2017-Oct-15 20:30N 57°20' E 011°31'814.8
2017-Oct-15 19:59N 57°13' E 011°36'915.1
2017-Oct-15 19:26N 57°05' E 011°41'614.9
2017-Oct-15 19:00N 56°59' E 011°45'814.4
2017-Oct-15 18:26N 56°51' E 011°50'614.2
2017-Oct-15 18:00N 56°46' E 011°54'714.8
2017-Oct-15 17:30N 56°38' E 011°57'814.8
2017-Oct-15 16:59N 56°31' E 012°00'714.3
2017-Oct-15 16:30N 56°24' E 012°02'1013.5
2017-Oct-15 15:44N 56°15' E 012°12'414.9
2017-Oct-15 15:28N 56°13' E 012°18'715.0
2017-Oct-15 15:00N 56°09' E 012°29'1313.5
2017-Oct-15 14:00N 55°58' E 012°41'714.1
2017-Oct-15 13:30N 55°51' E 012°41'714.3
2017-Oct-15 13:01N 55°44' E 012°41'714.0
2017-Oct-15 12:30N 55°37' E 012°42'611.3
2017-Oct-15 12:00N 55°31' E 012°43'714.7
2017-Oct-15 11:30N 55°24' E 012°41'612.5
2017-Oct-15 11:00N 55°18' E 012°44'714.6
2017-Oct-15 10:30N 55°15' E 012°56'714.7
2017-Oct-15 10:00N 55°14' E 013°09'1214.8
2017-Oct-15 09:13N 55°13' E 013°30'414.8
2017-Oct-15 08:57N 55°13' E 013°36'1314.9
2017-Oct-15 08:04N 55°13' E 013°60'414.8
2017-Oct-15 07:48N 55°13' E 014°06'514.8
2017-Oct-15 07:30N 55°13' E 014°14'713.6
2017-Oct-15 07:00N 55°17' E 014°23'714.8
2017-Oct-15 06:30N 55°23' E 014°31'714.4
2017-Oct-15 06:00N 55°28' E 014°40'814.7
2017-Oct-15 05:27N 55°32' E 014°52'1414.7
2017-Oct-15 04:30N 55°39' E 015°14'714.5
2017-Oct-15 04:00N 55°42' E 015°25'714.7
2017-Oct-15 03:30N 55°46' E 015°36'714.6
2017-Oct-15 03:00N 55°50' E 015°48'714.8
2017-Oct-15 02:30N 55°53' E 015°59'714.7
2017-Oct-15 02:00N 55°57' E 016°10'714.6
2017-Oct-15 01:30N 56°01' E 016°22'714.9
2017-Oct-15 01:00N 56°04' E 016°33'714.8
2017-Oct-15 00:30N 56°09' E 016°44'814.8
2017-Oct-15 00:00N 56°13' E 016°55'29314.2
2017-Oct-14 03:16N 59°39' E 023°29'415.3
2017-Oct-14 03:00N 59°40' E 023°36'714.9
2017-Oct-14 02:30N 59°42' E 023°51'714.9
2017-Oct-14 02:00N 59°45' E 024°05'714.9
2017-Oct-14 01:30N 59°47' E 024°19'714.8
2017-Oct-14 01:00N 59°48' E 024°33'714.6
2017-Oct-14 00:30N 59°50' E 024°47'  
Track history (hours):
 
Tides and Currents Weather Stations Pressure Air Temp Water Temp Dewpoint Dewpoint Depression Visibility Wind Speed Wind Dir Waves Ship Positions

Tessa Kosan

Last reported at 2017-Oct-18 20:30 UTC. Time now 2017-Oct-18 20:32 UTC.
Position N 51°26' E 003°38'.

Length 112 m; draft 5.3 m.

Type: Ship (hazmat cat C). MMSI: 235006740.

Date/timePositionNaut miles runAvg speedWind from/ knotsBaromVisibWave heightAir tempDewpointWater temp
2017-Oct-18 20:30N 51°26' E 003°38'3 4.0
2017-Oct-18 19:44N 51°28' E 003°42'0 0.0
2017-Oct-18 19:20N 51°28' E 003°42'0 0.0
2017-Oct-18 18:56N 51°28' E 003°42'0 0.0
2017-Oct-18 18:26N 51°28' E 003°42'0 0.0
2017-Oct-18 17:53N 51°28' E 003°42'0 0.0
2017-Oct-18 17:08N 51°28' E 003°42'0 0.0
2017-Oct-18 16:56N 51°28' E 003°42'0 0.0
2017-Oct-18 16:26N 51°28' E 003°42'0 0.0
2017-Oct-18 15:56N 51°28' E 003°42'0 0.0
2017-Oct-18 15:21N 51°28' E 003°42'0 0.0
2017-Oct-18 15:00N 51°28' E 003°42'8 7.6
2017-Oct-18 14:00N 51°21' E 003°46'0 0.0
2017-Oct-18 13:30N 51°21' E 003°46'0 0.0
2017-Oct-18 13:00N 51°21' E 003°46'0 0.0
2017-Oct-18 12:30N 51°21' E 003°46'0 0.0
2017-Oct-18 12:00N 51°21' E 003°46'0 0.0
2017-Oct-18 11:30N 51°21' E 003°46'0 0.0
2017-Oct-18 11:00N 51°21' E 003°46'0 0.0
2017-Oct-18 10:30N 51°21' E 003°46'0 0.0
2017-Oct-18 10:00N 51°21' E 003°46'0 0.0
2017-Oct-18 09:30N 51°21' E 003°46'0 0.0
2017-Oct-18 09:00N 51°21' E 003°46'0 0.0
2017-Oct-18 08:30N 51°21' E 003°46'0 0.0
2017-Oct-18 08:00N 51°21' E 003°46'0 0.0
2017-Oct-18 07:30N 51°21' E 003°46'0 0.0
2017-Oct-18 07:00N 51°21' E 003°46'0 0.0
2017-Oct-18 06:30N 51°21' E 003°46'0 0.0
2017-Oct-18 06:00N 51°21' E 003°46'0 0.0
2017-Oct-18 05:30N 51°21' E 003°46'0 0.0
2017-Oct-18 05:00N 51°21' E 003°46'0 0.0
2017-Oct-18 04:30N 51°21' E 003°46'0 0.0
2017-Oct-18 04:00N 51°21' E 003°46'0 0.0
2017-Oct-18 03:30N 51°21' E 003°46'0 0.0
2017-Oct-18 03:00N 51°21' E 003°46'0 0.0
2017-Oct-18 02:30N 51°21' E 003°46'0 0.0
2017-Oct-18 02:00N 51°21' E 003°46'0 0.0
2017-Oct-18 01:30N 51°21' E 003°46'0 0.0
2017-Oct-18 01:00N 51°21' E 003°46'0 0.0
2017-Oct-18 00:30N 51°21' E 003°46'0 0.0
2017-Oct-18 00:00N 51°21' E 003°46'0 0.0
2017-Oct-17 23:30N 51°21' E 003°46'0 0.0
2017-Oct-17 23:00N 51°21' E 003°46'0 0.0
2017-Oct-17 22:30N 51°21' E 003°46'0 0.0
2017-Oct-17 22:00N 51°21' E 003°46'0 0.0
2017-Oct-17 21:30N 51°21' E 003°46'0 0.0
2017-Oct-17 21:00N 51°21' E 003°46'0 0.0
2017-Oct-17 20:30N 51°21' E 003°46'0 0.0
2017-Oct-17 20:00N 51°21' E 003°46'0 0.0
2017-Oct-17 19:30N 51°21' E 003°46'0 0.0
2017-Oct-17 19:00N 51°21' E 003°46'0 0.0
2017-Oct-17 18:30N 51°21' E 003°46'0 0.0
2017-Oct-17 18:00N 51°21' E 003°46'0 0.0
2017-Oct-17 17:30N 51°21' E 003°46'0 0.0
2017-Oct-17 17:00N 51°21' E 003°46'0 0.0
2017-Oct-17 16:30N 51°21' E 003°46'0 0.0
2017-Oct-17 16:00N 51°21' E 003°46'0 0.0
2017-Oct-17 15:30N 51°21' E 003°46'0 0.0
2017-Oct-17 15:00N 51°21' E 003°46'1 2.1
2017-Oct-17 14:30N 51°22' E 003°45'510.4
2017-Oct-17 14:00N 51°26' E 003°41'510.5
2017-Oct-17 13:30N 51°25' E 003°32'612.3
2017-Oct-17 13:00N 51°24' E 003°22'713.7
2017-Oct-17 12:30N 51°24' E 003°12'713.8
2017-Oct-17 12:00N 51°26' E 003°01'612.1
2017-Oct-17 11:30N 51°31' E 003°05'612.0
2017-Oct-17 11:01N 51°36' E 003°11'612.4
2017-Oct-17 10:30N 51°42' E 003°14'2 4.0
2017-Oct-17 10:00N 51°44' E 003°15'5 9.3
2017-Oct-17 09:30N 51°48' E 003°16'611.6
2017-Oct-17 09:00N 51°54' E 003°19'1713.0
2017-Oct-17 07:40N 52°11' E 003°22'213.5
2017-Oct-17 07:30N 52°13' E 003°23'11512.6
2017-Oct-16 22:19N 53°56' E 004°52'513.8
2017-Oct-16 21:59N 54°00' E 004°54'713.9
2017-Oct-16 21:30N 54°06' E 004°58'814.0
2017-Oct-16 20:54N 54°14' E 005°04'7113.8
2017-Oct-16 15:46N 55°17' E 006°01'11614.3
2017-Oct-16 07:38N 56°59' E 007°41'2413.8
2017-Oct-16 05:54N 57°18' E 008°08'1013.8
2017-Oct-16 05:12N 57°22' E 008°24'314.2
2017-Oct-16 04:58N 57°23' E 008°30'613.8
2017-Oct-16 04:30N 57°26' E 008°41'3813.6
2017-Oct-16 01:43N 57°41' E 009°46'413.4
2017-Oct-16 01:26N 57°42' E 009°52'713.6
2017-Oct-16 00:55N 57°45' E 010°04'713.4
2017-Oct-16 00:23N 57°48' E 010°16'513.0
2017-Oct-16 00:00N 57°50' E 010°25'713.2
2017-Oct-15 23:30N 57°50' E 010°38'612.7
2017-Oct-15 23:00N 57°48' E 010°49'714.2
2017-Oct-15 22:30N 57°43' E 010°58'714.5
2017-Oct-15 22:00N 57°38' E 011°07'714.9
2017-Oct-15 21:30N 57°33' E 011°18'714.8
2017-Oct-15 21:00N 57°27' E 011°27'714.7
2017-Oct-15 20:30N 57°20' E 011°31'814.8
2017-Oct-15 19:59N 57°13' E 011°36'915.1
2017-Oct-15 19:26N 57°05' E 011°41'614.9
2017-Oct-15 19:00N 56°59' E 011°45'814.4
2017-Oct-15 18:26N 56°51' E 011°50'614.2
2017-Oct-15 18:00N 56°46' E 011°54'714.8
2017-Oct-15 17:30N 56°38' E 011°57'814.8
2017-Oct-15 16:59N 56°31' E 012°00'714.3
2017-Oct-15 16:30N 56°24' E 012°02'1013.5
2017-Oct-15 15:44N 56°15' E 012°12'414.9
2017-Oct-15 15:28N 56°13' E 012°18'715.0
2017-Oct-15 15:00N 56°09' E 012°29'1313.5
2017-Oct-15 14:00N 55°58' E 012°41'714.1
2017-Oct-15 13:30N 55°51' E 012°41'714.3
2017-Oct-15 13:01N 55°44' E 012°41'714.0
2017-Oct-15 12:30N 55°37' E 012°42'611.3
2017-Oct-15 12:00N 55°31' E 012°43'714.7
2017-Oct-15 11:30N 55°24' E 012°41'612.5
2017-Oct-15 11:00N 55°18' E 012°44'714.6
2017-Oct-15 10:30N 55°15' E 012°56'714.7
2017-Oct-15 10:00N 55°14' E 013°09'1214.8
2017-Oct-15 09:13N 55°13' E 013°30'414.8
2017-Oct-15 08:57N 55°13' E 013°36'1314.9
2017-Oct-15 08:04N 55°13' E 013°60'414.8
2017-Oct-15 07:48N 55°13' E 014°06'514.8
2017-Oct-15 07:30N 55°13' E 014°14'713.6
2017-Oct-15 07:00N 55°17' E 014°23'714.8
2017-Oct-15 06:30N 55°23' E 014°31'714.4
2017-Oct-15 06:00N 55°28' E 014°40'814.7
2017-Oct-15 05:27N 55°32' E 014°52'1414.7
2017-Oct-15 04:30N 55°39' E 015°14'714.5
2017-Oct-15 04:00N 55°42' E 015°25'714.7
2017-Oct-15 03:30N 55°46' E 015°36'714.6
2017-Oct-15 03:00N 55°50' E 015°48'714.8
2017-Oct-15 02:30N 55°53' E 015°59'714.7
2017-Oct-15 02:00N 55°57' E 016°10'714.6
2017-Oct-15 01:30N 56°01' E 016°22'714.9
2017-Oct-15 01:00N 56°04' E 016°33'714.8
2017-Oct-15 00:30N 56°09' E 016°44'814.8
2017-Oct-15 00:00N 56°13' E 016°55'29314.2
2017-Oct-14 03:16N 59°39' E 023°29'415.3
2017-Oct-14 03:00N 59°40' E 023°36'714.9
2017-Oct-14 02:30N 59°42' E 023°51'714.9
2017-Oct-14 02:00N 59°45' E 024°05'714.9
2017-Oct-14 01:30N 59°47' E 024°19'714.8
2017-Oct-14 01:00N 59°48' E 024°33'714.6
2017-Oct-14 00:30N 59°50' E 024°47'  

Dump ship's entire track history